TimeCET,TemperatureF,Dew PointF,Humidity,Sea Level PressureIn,VisibilityMPH,Wind Direction,Wind SpeedMPH,Gust SpeedMPH,PrecipitationIn,Events,Conditions,WindDirDegrees,DateUTC
12:55 AM,17.6,8.6,68,29.71,-9999.0,South,10.4,-,N/A,,Clear,190,2012-10-29 23:55:00
1:00 AM,17,10,61,,37,South,10.4,,,,,190,2012-10-30 00:00:00
1:55 AM,17.6,10.4,73,29.68,-9999.0,SSW,11.5,-,N/A,,Clear,200,2012-10-30 00:55:00
2:55 AM,17.6,10.4,73,29.68,-9999.0,South,11.5,-,N/A,,Clear,180,2012-10-30 01:55:00
3:55 AM,17.6,10.4,73,29.68,-9999.0,South,11.5,-,N/A,,Clear,180,2012-10-30 02:55:00
4:00 AM,18,10,59,,31,South,11.5,,,,,180,2012-10-30 03:00:00
4:55 AM,17.6,10.4,73,29.68,-9999.0,SSE,9.2,-,N/A,,Clear,160,2012-10-30 03:55:00
5:55 AM,17.6,12.2,79,29.68,-9999.0,SSE,9.2,-,N/A,,Clear,150,2012-10-30 04:55:00
6:55 AM,17.6,6.8,63,29.68,-9999.0,SSE,8.1,-,N/A,,Clear,150,2012-10-30 05:55:00
7:00 AM,18,7,49,,31,SSE,8.1,,,,Clear,150,2012-10-30 06:00:00
7:55 AM,17.6,5.0,58,29.68,-9999.0,East,9.2,-,N/A,,Clear,100,2012-10-30 06:55:00
8:55 AM,19.4,1.4,46,29.68,-9999.0,Variable,2.3,-,N/A,,Clear,0,2012-10-30 07:55:00
9:55 AM,21.2,12.2,68,29.68,-9999.0,Variable,2.3,-,N/A,,Clear,0,2012-10-30 08:55:00
10:00 AM,21,12,55,,37,,2.3,,,,Partly Cloudy,,2012-10-30 09:00:00
10:55 AM,26.6,8.6,47,29.68,-9999.0,Variable,1.2,-,N/A,,Clear,0,2012-10-30 09:55:00
11:55 AM,26.6,15.8,64,29.68,6.2,Variable,2.3,-,N/A,,Partly Cloudy,0,2012-10-30 10:55:00
12:55 PM,26.6,17.6,69,29.68,6.2,WSW,3.5,-,N/A,,Partly Cloudy,240,2012-10-30 11:55:00
1:00 PM,27,18,59,,31,WSW,3.5,,,,Scattered Clouds,240,2012-10-30 12:00:00
1:55 PM,24.8,23.0,93,29.68,6.2,WSW,6.9,-,N/A,,Partly Cloudy,250,2012-10-30 12:55:00
2:55 PM,26.6,21.2,80,29.68,6.2,West,3.5,-,N/A,,Partly Cloudy,260,2012-10-30 13:55:00
3:55 PM,26.6,23.0,86,29.68,6.2,Variable,1.2,-,N/A,,Partly Cloudy,0,2012-10-30 14:55:00
4:00 PM,27,23,78,,31,,1.2,,,,Scattered Clouds,,2012-10-30 15:00:00
4:55 PM,24.8,15.8,69,29.68,6.2,West,2.3,-,N/A,,Partly Cloudy,270,2012-10-30 15:55:00
5:55 PM,19.4,8.6,63,29.68,-9999.0,West,4.6,-,N/A,,Clear,270,2012-10-30 16:55:00
6:55 PM,28.4,15.8,59,29.71,-9999.0,WSW,11.5,-,N/A,,Clear,240,2012-10-30 17:55:00
7:00 PM,28,16,48,,25,WSW,11.5,,,,Partly Cloudy,240,2012-10-30 18:00:00
7:55 PM,24.8,21.2,86,29.71,-9999.0,SW,12.7,-,N/A,,Clear,220,2012-10-30 18:55:00
8:55 PM,23.0,21.2,93,29.71,-9999.0,WSW,16.1,-,N/A,,Clear,250,2012-10-30 19:55:00
9:55 PM,23.0,21.2,93,29.71,-9999.0,West,17.3,-,N/A,,Clear,260,2012-10-30 20:55:00
10:00 PM,23,21,88,,12,West,17.3,,,,Partly Cloudy,260,2012-10-30 21:00:00
10:55 PM,23.0,21.2,93,29.71,-9999.0,WSW,13.8,-,N/A,,Clear,240,2012-10-30 21:55:00
11:55 PM,23.0,21.2,93,29.71,-9999.0,SW,10.4,-,N/A,,Clear,220,2012-10-30 22:55:00